createdAt,value
2019-03-22T00:02:22.144Z,25.20
2019-03-22T00:04:52.488Z,24.13
2019-03-22T00:07:22.805Z,30.27
2019-03-22T00:09:53.092Z,44.47
2019-03-22T00:12:23.378Z,29.83
2019-03-22T00:14:53.761Z,24.97
2019-03-22T00:17:24.077Z,42.40
2019-03-22T00:19:54.383Z,29.87
2019-03-22T00:22:25.035Z,26.63
2019-03-22T00:24:55.595Z,27.07
2019-03-22T00:27:26.167Z,24.20
2019-03-22T00:29:56.737Z,30.53
2019-03-22T00:32:27.300Z,41.00
2019-03-22T00:34:57.871Z,34.10
2019-03-22T00:37:28.180Z,31.67
2019-03-22T00:39:58.537Z,33.97
2019-03-22T00:42:28.802Z,28.10
2019-03-22T00:44:59.107Z,39.10
2019-03-22T00:47:29.460Z,25.63
2019-03-22T00:49:59.897Z,32.53
2019-03-22T00:52:30.248Z,26.60
2019-03-22T00:55:00.532Z,26.77
2019-03-22T00:57:30.818Z,29.00
2019-03-22T01:00:01.086Z,42.83
2019-03-22T01:02:31.354Z,28.77
2019-03-22T01:05:02.934Z,43.47
2019-03-22T01:07:33.364Z,28.03
2019-03-22T01:10:05.169Z,57.07
2019-03-22T01:12:35.725Z,28.17
2019-03-22T01:15:07.342Z,27.60
2019-03-22T01:17:37.704Z,36.37
2019-03-22T01:20:08.094Z,58.23
2019-03-22T01:22:38.402Z,43.43
2019-03-22T01:25:09.141Z,30.53
2019-03-22T01:27:40.753Z,30.43
2019-03-22T01:30:12.531Z,31.83
2019-03-22T01:32:42.882Z,37.20
2019-03-22T01:35:14.002Z,33.93
2019-03-22T01:37:45.454Z,54.00
2019-03-22T01:40:16.329Z,49.87
2019-03-22T01:42:46.569Z,38.03
2019-03-22T01:45:16.865Z,30.90
2019-03-22T01:47:47.111Z,35.43
2019-03-22T01:50:17.866Z,32.47
2019-03-22T01:52:48.134Z,31.00
2019-03-22T01:55:18.398Z,41.37
2019-03-22T01:57:53.656Z,42.67
2019-03-22T02:00:20.918Z,37.67
2019-03-22T02:02:51.191Z,35.40
2019-03-22T02:05:21.577Z,62.37
2019-03-22T02:07:51.886Z,47.20
2019-03-22T02:10:22.230Z,32.40
2019-03-22T02:12:52.798Z,39.63
2019-03-22T02:15:23.336Z,50.47
2019-03-22T02:17:55.123Z,35.67
2019-03-22T02:20:25.778Z,39.37
2019-03-22T02:22:56.338Z,54.23
2019-03-22T02:25:27.002Z,59.00
2019-03-22T02:28:04.064Z,41.17
2019-03-22T02:30:29.877Z,39.50
2019-03-22T02:33:00.245Z,44.37
2019-03-22T02:35:30.566Z,42.77
2019-03-22T02:38:00.924Z,39.67
2019-03-22T02:40:31.354Z,51.30
2019-03-22T02:43:01.766Z,37.70
2019-03-22T02:45:32.121Z,46.60
2019-03-22T02:48:02.474Z,54.60
2019-03-22T02:50:32.727Z,52.50
2019-03-22T02:53:03.088Z,64.47
2019-03-22T02:55:33.451Z,42.67
2019-03-22T02:58:19.360Z,43.37
2019-03-22T03:00:36.634Z,52.70
2019-03-22T03:03:06.971Z,69.10
2019-03-22T03:05:37.277Z,43.60
2019-03-22T03:08:07.605Z,48.53
2019-03-22T03:10:37.901Z,42.90
2019-03-22T03:13:08.247Z,59.77
2019-03-22T03:15:38.494Z,48.00
2019-03-22T03:18:08.845Z,46.97
2019-03-22T03:20:39.178Z,55.73
2019-03-22T03:23:09.536Z,50.63
2019-03-22T03:25:39.954Z,41.67
2019-03-22T03:28:10.271Z,48.67
2019-03-22T03:30:40.548Z,55.70
2019-03-22T03:33:10.876Z,49.20
2019-03-22T03:35:41.127Z,51.43
2019-03-22T03:38:11.488Z,62.23
2019-03-22T03:40:41.816Z,55.87
2019-03-22T03:43:13.056Z,46.97
2019-03-22T03:45:43.318Z,50.03
2019-03-22T03:48:14.073Z,50.03
2019-03-22T03:50:44.381Z,52.57
2019-03-22T03:53:14.707Z,47.47
2019-03-22T03:55:44.974Z,49.73
2019-03-22T03:58:15.368Z,44.70
2019-03-22T04:00:45.680Z,67.47
2019-03-22T04:03:16.006Z,67.90
2019-03-22T04:05:46.288Z,54.63
2019-03-22T04:08:16.693Z,44.83
2019-03-22T04:10:47.104Z,50.10
2019-03-22T04:13:17.612Z,46.50
2019-03-22T04:15:47.968Z,57.13
2019-03-22T04:18:18.222Z,49.23
2019-03-22T04:20:48.429Z,65.93
2019-03-22T04:23:18.693Z,48.30
2019-03-22T04:25:48.945Z,73.30
2019-03-22T04:28:19.593Z,51.00
2019-03-22T04:30:49.841Z,72.07
2019-03-22T04:33:20.118Z,51.23
2019-03-22T04:35:50.412Z,46.03
2019-03-22T04:38:20.788Z,49.33
2019-03-22T04:40:51.103Z,49.47
2019-03-22T04:43:21.441Z,53.63
2019-03-22T04:45:52.699Z,70.50
2019-03-22T04:48:29.140Z,66.10
2019-03-22T04:51:00.197Z,54.07
2019-03-22T04:53:33.262Z,56.83
2019-03-22T04:56:06.320Z,52.17
2019-03-22T04:58:37.564Z,66.63
2019-03-22T05:01:08.410Z,49.00
2019-03-22T05:03:39.334Z,61.60
2019-03-22T05:06:10.337Z,50.57
2019-03-22T05:08:40.913Z,61.83
2019-03-22T05:11:12.103Z,55.30
2019-03-22T05:13:43.081Z,52.17
2019-03-22T05:16:15.414Z,51.93
2019-03-22T05:18:48.068Z,70.17
2019-03-22T05:21:20.024Z,54.67
2019-03-22T05:23:51.869Z,48.10
2019-03-22T05:26:23.525Z,53.93
2019-03-22T05:28:54.076Z,53.93
2019-03-22T05:31:30.590Z,52.03
2019-03-22T05:34:00.951Z,55.33
2019-03-22T05:36:31.301Z,54.70
2019-03-22T05:39:01.554Z,52.30
2019-03-22T05:41:32.360Z,74.83
2019-03-22T05:44:02.884Z,51.67
2019-03-22T05:46:33.300Z,63.03
2019-03-22T05:49:04.484Z,51.80
2019-03-22T05:51:34.809Z,52.00
2019-03-22T05:54:05.343Z,57.80
2019-03-22T05:56:35.792Z,56.20
2019-03-22T05:59:06.070Z,68.27
2019-03-22T06:01:36.372Z,74.07
2019-03-22T06:04:06.697Z,58.63
2019-03-22T06:06:36.978Z,75.93
2019-03-22T06:09:08.175Z,53.60
2019-03-22T06:11:38.537Z,83.83
2019-03-22T06:14:08.876Z,55.50
2019-03-22T06:16:39.405Z,58.13
2019-03-22T06:19:09.746Z,60.67
2019-03-22T06:21:40.030Z,83.50
2019-03-22T06:24:10.437Z,52.03
2019-03-22T06:26:40.802Z,64.00
2019-03-22T06:29:11.084Z,56.63
2019-03-22T06:31:41.530Z,63.53
2019-03-22T06:34:11.789Z,87.70
2019-03-22T06:36:42.045Z,59.83
2019-03-22T06:39:12.340Z,58.20
2019-03-22T06:41:42.697Z,55.43
2019-03-22T06:44:13.081Z,53.27
2019-03-22T06:46:43.398Z,64.07
2019-03-22T06:49:13.644Z,60.70
2019-03-22T06:51:44.039Z,72.87
2019-03-22T06:54:14.296Z,78.57
2019-03-22T06:56:44.610Z,88.77
2019-03-22T06:59:14.943Z,71.77
2019-03-22T07:01:45.352Z,70.93
2019-03-22T07:04:15.681Z,58.27
2019-03-22T07:06:46.012Z,52.90
2019-03-22T07:09:16.261Z,59.03
2019-03-22T07:11:46.552Z,70.63
2019-03-22T07:14:16.888Z,71.53
2019-03-22T07:16:48.757Z,54.57
2019-03-22T07:19:20.487Z,54.10
2019-03-22T07:21:50.834Z,62.57
2019-03-22T07:24:21.113Z,54.00
2019-03-22T07:26:51.435Z,60.27
2019-03-22T07:29:21.787Z,59.20
2019-03-22T07:31:52.161Z,55.33
2019-03-22T07:34:22.454Z,55.67
2019-03-22T07:36:57.585Z,60.60
2019-03-22T07:39:27.984Z,54.63
2019-03-22T07:41:58.345Z,58.77
2019-03-22T07:44:28.643Z,81.57
2019-03-22T07:46:58.975Z,62.23
2019-03-22T07:49:29.284Z,66.50
2019-03-22T07:51:59.609Z,70.33
2019-03-22T07:54:29.994Z,71.90
2019-03-22T07:57:00.324Z,55.13
2019-03-22T07:59:30.718Z,55.67
2019-03-22T08:02:01.119Z,54.70
2019-03-22T08:04:32.447Z,55.27
2019-03-22T08:07:02.775Z,64.43
2019-03-22T08:09:34.731Z,83.17
2019-03-22T08:12:05.275Z,59.00
2019-03-22T08:14:35.542Z,66.57
2019-03-22T08:17:05.864Z,70.40
2019-03-22T08:19:36.179Z,62.33
2019-03-22T08:22:06.603Z,67.20
2019-03-22T08:24:36.896Z,52.77
2019-03-22T08:27:07.306Z,64.83
2019-03-22T08:29:37.640Z,67.35
2019-03-22T08:32:07.945Z,71.57
2019-03-22T08:34:38.282Z,77.43
2019-03-22T08:37:08.664Z,70.80
2019-03-22T08:39:39.033Z,71.10
2019-03-22T08:42:09.544Z,83.57
2019-03-22T08:44:39.887Z,65.43
2019-03-22T08:47:10.305Z,78.80
2019-03-22T08:49:40.661Z,62.87
2019-03-22T08:52:11.310Z,65.50
2019-03-22T08:54:41.635Z,68.03
2019-03-22T08:57:11.946Z,88.77
2019-03-22T08:59:42.327Z,70.40
2019-03-22T09:02:12.695Z,79.27
2019-03-22T09:04:43.809Z,83.90
2019-03-22T09:07:15.711Z,57.43
2019-03-22T09:09:46.123Z,60.10
2019-03-22T09:12:16.603Z,75.57
2019-03-22T09:14:48.369Z,66.67
2019-03-22T09:17:20.049Z,81.90
2019-03-22T09:19:51.274Z,64.03
2019-03-22T09:22:21.763Z,67.47
2019-03-22T09:24:52.108Z,72.77
2019-03-22T09:27:22.444Z,59.53
2019-03-22T09:29:53.897Z,71.40
2019-03-22T09:32:24.429Z,80.30
2019-03-22T09:34:54.794Z,74.60
2019-03-22T09:37:25.118Z,73.10
2019-03-22T09:39:55.432Z,82.00
2019-03-22T09:42:25.759Z,83.40
2019-03-22T09:44:56.159Z,75.03
2019-03-22T09:47:26.615Z,78.90
2019-03-22T09:49:57.066Z,66.57
2019-03-22T09:52:27.338Z,65.60
2019-03-22T09:54:57.587Z,73.83
2019-03-22T09:57:27.968Z,71.50
2019-03-22T09:59:58.361Z,69.93
2019-03-22T10:02:28.719Z,67.13
2019-03-22T10:04:59.065Z,67.53
2019-03-22T10:07:29.458Z,64.60
2019-03-22T10:09:59.915Z,65.33
2019-03-22T10:12:30.380Z,64.47
2019-03-22T10:15:00.845Z,63.67
2019-03-22T10:17:31.605Z,65.87
2019-03-22T10:20:02.004Z,63.97
2019-03-22T10:22:32.399Z,55.70
2019-03-22T10:25:04.993Z,67.40
2019-03-22T10:27:35.375Z,62.30
2019-03-22T10:30:06.118Z,62.67
2019-03-22T10:32:36.522Z,64.57
2019-03-22T10:35:07.141Z,59.30
2019-03-22T10:37:37.520Z,56.00
2019-03-22T10:40:08.304Z,56.67
2019-03-22T10:42:38.791Z,54.73
2019-03-22T10:45:09.149Z,55.47
2019-03-22T10:47:39.444Z,55.60
2019-03-22T10:50:09.888Z,58.33
2019-03-22T10:52:40.326Z,55.40
2019-03-22T10:55:23.648Z,55.43
2019-03-22T10:57:42.867Z,51.67
2019-03-22T11:00:14.859Z,52.62
2019-03-22T11:02:45.322Z,51.60
2019-03-22T11:05:15.664Z,51.67
2019-03-22T11:07:46.080Z,53.23
2019-03-22T11:10:16.430Z,51.60
2019-03-22T11:12:47.857Z,51.70
2019-03-22T11:15:18.185Z,47.30
2019-03-22T11:17:48.638Z,48.30
2019-03-22T11:20:19.015Z,46.23
2019-03-22T11:22:49.309Z,50.97
2019-03-22T11:25:19.647Z,44.23
2019-03-22T11:27:49.905Z,43.23
2019-03-22T11:30:20.287Z,40.70
2019-03-22T11:32:50.749Z,41.67
2019-03-22T11:35:21.039Z,41.83
2019-03-22T11:37:51.419Z,44.63
2019-03-22T11:40:21.836Z,43.07
2019-03-22T11:42:52.330Z,43.13
2019-03-22T11:45:24.595Z,43.50
2019-03-22T11:47:55.289Z,42.13
2019-03-22T11:50:25.677Z,42.53
2019-03-22T11:52:56.057Z,40.27
2019-03-22T11:55:26.667Z,40.37
2019-03-22T11:57:57.040Z,39.20
2019-03-22T12:00:27.954Z,38.83
2019-03-22T12:02:58.460Z,37.13
2019-03-22T12:05:28.887Z,33.63
2019-03-22T12:08:00.834Z,37.87
2019-03-22T12:10:33.357Z,34.63
2019-03-22T12:13:04.870Z,38.73
2019-03-22T12:15:35.184Z,36.40
2019-03-22T12:18:07.650Z,39.30
2019-03-22T12:20:38.114Z,35.13
2019-03-22T12:23:08.856Z,34.00
2019-03-22T12:25:39.329Z,37.80
2019-03-22T12:28:09.637Z,34.67
2019-03-22T12:30:40.260Z,35.63
2019-03-22T12:33:10.646Z,35.70
2019-03-22T12:35:42.614Z,30.73
2019-03-22T12:38:13.727Z,33.47
2019-03-22T12:40:44.036Z,28.83
2019-03-22T12:43:14.503Z,31.37
2019-03-22T12:45:44.792Z,28.87
2019-03-22T12:48:15.074Z,30.57
2019-03-22T12:50:45.313Z,29.97
2019-03-22T12:53:15.588Z,29.70
2019-03-22T12:55:45.841Z,27.07
2019-03-22T12:58:16.204Z,25.77
2019-03-22T13:00:46.556Z,26.87
2019-03-22T13:03:16.808Z,27.23
2019-03-22T13:05:47.104Z,27.80
2019-03-22T13:08:17.478Z,27.33
2019-03-22T13:10:48.024Z,25.93
2019-03-22T13:13:18.371Z,28.50
2019-03-22T13:15:48.683Z,25.43
2019-03-22T13:18:18.968Z,25.93
2019-03-22T13:20:51.083Z,25.50
2019-03-22T13:23:21.276Z,25.23
2019-03-22T13:25:51.556Z,25.00
2019-03-22T13:28:21.898Z,22.77
2019-03-22T13:30:52.224Z,24.00
2019-03-22T13:33:22.709Z,25.63
2019-03-22T13:35:53.079Z,26.00
2019-03-22T13:38:23.422Z,23.33
2019-03-22T13:40:53.713Z,23.27
2019-03-22T13:43:24.019Z,23.07
2019-03-22T13:45:54.348Z,24.57
2019-03-22T13:48:24.697Z,23.43
2019-03-22T13:50:55.048Z,23.73
2019-03-22T13:53:25.336Z,23.23
2019-03-22T13:55:55.621Z,21.50
2019-03-22T13:58:26.328Z,21.63
2019-03-22T14:00:56.780Z,19.70
2019-03-22T14:03:27.240Z,20.03
2019-03-22T14:05:57.683Z,20.97
2019-03-22T14:08:27.991Z,21.57
2019-03-22T14:10:58.335Z,18.20
2019-03-22T14:13:28.705Z,21.40
2019-03-22T14:15:59.030Z,18.37
2019-03-22T14:18:29.441Z,20.90
2019-03-22T14:20:59.787Z,16.27
2019-03-22T14:23:30.135Z,19.57
2019-03-22T14:26:00.877Z,18.30
2019-03-22T14:28:31.302Z,20.10
2019-03-22T14:31:01.678Z,18.23
2019-03-22T14:33:32.116Z,18.23
2019-03-22T14:36:02.526Z,17.33
2019-03-22T14:38:33.186Z,16.67
2019-03-22T14:41:03.813Z,18.53
2019-03-22T14:43:34.214Z,16.57
2019-03-22T14:46:04.650Z,16.93
2019-03-22T14:48:35.103Z,17.73
2019-03-22T14:51:05.662Z,15.93
2019-03-22T14:53:35.936Z,12.73
2019-03-22T14:56:06.265Z,15.37
2019-03-22T14:58:36.870Z,13.93
2019-03-22T15:01:07.278Z,15.93
2019-03-22T15:03:37.606Z,13.60
2019-03-22T15:06:08.978Z,16.87
2019-03-22T15:08:39.275Z,14.40
2019-03-22T15:11:09.741Z,14.10
2019-03-22T15:13:46.005Z,12.40
2019-03-22T15:16:34.686Z,15.57
2019-03-22T15:19:22.786Z,14.37
2019-03-22T15:22:11.096Z,14.83
2019-03-22T15:25:00.624Z,12.77
2019-03-22T15:27:45.865Z,11.47
2019-03-22T15:30:31.569Z,10.13
2019-03-22T15:33:16.945Z,16.60
2019-03-22T15:35:57.268Z,15.20
2019-03-22T15:38:49.873Z,13.33
2019-03-22T15:41:20.361Z,14.07
2019-03-22T15:43:50.725Z,10.07
2019-03-22T15:46:21.071Z,11.27
2019-03-22T15:48:51.335Z,11.00
2019-03-22T15:51:21.633Z,10.37
2019-03-22T15:53:51.887Z,10.00
2019-03-22T15:56:22.393Z,13.43
2019-03-22T15:58:52.640Z,13.63
2019-03-22T16:01:23.530Z,12.23
2019-03-22T16:03:53.927Z,11.83
2019-03-22T16:06:24.577Z,9.73
2019-03-22T16:08:56.643Z,11.50
2019-03-22T16:11:30.486Z,10.47
2019-03-22T16:14:02.676Z,10.37
2019-03-22T16:16:33.064Z,9.80
2019-03-22T16:19:04.176Z,9.00
2019-03-22T16:21:34.555Z,10.33
2019-03-22T16:24:04.860Z,13.90
2019-03-22T16:26:35.195Z,13.07
2019-03-22T16:29:20.040Z,11.97
2019-03-22T16:31:47.418Z,11.73
2019-03-22T16:34:17.755Z,8.50
2019-03-22T16:36:48.419Z,9.17
2019-03-22T16:39:18.769Z,14.50
2019-03-22T16:41:49.368Z,10.63
2019-03-22T16:44:19.622Z,7.77
2019-03-22T16:46:49.963Z,7.97
2019-03-22T16:49:20.389Z,10.40
2019-03-22T16:51:50.867Z,7.73
2019-03-22T16:54:21.188Z,8.63
2019-03-22T16:56:51.442Z,7.00
2019-03-22T16:59:21.696Z,8.03
2019-03-22T17:01:52.160Z,8.60
2019-03-22T17:04:22.860Z,6.13
2019-03-22T17:06:54.226Z,9.07
2019-03-22T17:09:27.280Z,10.23
2019-03-22T17:11:57.773Z,6.47
2019-03-22T17:14:28.247Z,7.47
2019-03-22T17:16:58.593Z,6.70
2019-03-22T17:19:28.888Z,6.97
2019-03-22T17:21:59.161Z,6.20
2019-03-22T17:24:29.521Z,6.33
2019-03-22T17:26:59.817Z,7.40
2019-03-22T17:29:31.196Z,6.90
2019-03-22T17:32:02.720Z,7.13
2019-03-22T17:34:33.155Z,6.33
2019-03-22T17:37:04.296Z,6.17
2019-03-22T17:39:34.646Z,7.00
2019-03-22T17:42:05.052Z,6.73
2019-03-22T17:44:35.418Z,6.07
2019-03-22T17:47:05.845Z,6.30
2019-03-22T17:49:36.273Z,6.03
2019-03-22T17:52:06.784Z,6.37
2019-03-22T17:54:37.256Z,7.40
2019-03-22T17:57:07.636Z,6.27
2019-03-22T17:59:38.143Z,5.97
2019-03-22T18:02:08.558Z,7.33
2019-03-22T18:04:38.954Z,6.83
2019-03-22T18:07:09.260Z,7.03
2019-03-22T18:09:39.554Z,7.07
2019-03-22T18:12:10.864Z,6.33
2019-03-22T18:14:41.169Z,6.40
2019-03-22T18:17:11.456Z,6.67
2019-03-22T18:19:41.827Z,9.20
2019-03-22T18:22:12.193Z,9.33
2019-03-22T18:24:44.254Z,6.20
2019-03-22T18:27:14.650Z,7.77
2019-03-22T18:29:44.980Z,7.10
2019-03-22T18:32:15.270Z,8.90
2019-03-22T18:34:45.569Z,9.37
2019-03-22T18:37:15.977Z,8.10
2019-03-22T18:39:46.301Z,7.67
2019-03-22T18:42:16.589Z,10.00
2019-03-22T18:44:46.977Z,7.80
2019-03-22T18:47:17.475Z,8.43
2019-03-22T18:49:47.890Z,8.67
2019-03-22T18:52:18.154Z,9.83
2019-03-22T18:54:48.382Z,9.40
2019-03-22T18:57:18.654Z,9.13
2019-03-22T18:59:48.912Z,9.37
2019-03-22T19:02:19.188Z,9.23
2019-03-22T19:04:49.517Z,8.00
2019-03-22T19:07:19.846Z,10.10
2019-03-22T19:09:50.234Z,10.50
2019-03-22T19:12:20.596Z,10.67
2019-03-22T19:14:51.718Z,10.77
2019-03-22T19:17:29.404Z,8.30
2019-03-22T19:19:59.992Z,11.20
2019-03-22T19:22:30.383Z,8.07
2019-03-22T19:25:00.715Z,9.07
2019-03-22T19:27:31.017Z,9.30
2019-03-22T19:30:01.429Z,11.57
2019-03-22T19:32:31.977Z,9.60
2019-03-22T19:35:02.413Z,8.27
2019-03-22T19:37:32.895Z,9.17
2019-03-22T19:40:09.867Z,10.00
2019-03-22T19:42:40.508Z,11.27
2019-03-22T19:45:11.042Z,10.90
2019-03-22T19:47:41.337Z,13.00
2019-03-22T19:50:11.808Z,12.93
2019-03-22T19:52:43.036Z,10.03
2019-03-22T19:55:14.665Z,12.00
2019-03-22T19:57:45.110Z,10.03
2019-03-22T20:00:15.542Z,10.07
2019-03-22T20:02:46.044Z,9.20
2019-03-22T20:05:21.506Z,11.47
2019-03-22T20:07:51.778Z,9.13
2019-03-22T20:10:22.121Z,10.47
2019-03-22T20:12:52.459Z,10.93
2019-03-22T20:15:22.818Z,11.40
2019-03-22T20:17:53.091Z,11.90
2019-03-22T20:20:23.424Z,9.63
2019-03-22T20:22:53.939Z,12.63
2019-03-22T20:25:24.286Z,9.53
2019-03-22T20:27:55.575Z,11.00
2019-03-22T20:30:25.955Z,12.47
2019-03-22T20:32:56.305Z,11.07
2019-03-22T20:35:26.763Z,11.63
2019-03-22T20:37:57.163Z,11.53
2019-03-22T20:40:27.581Z,12.67
2019-03-22T20:42:57.905Z,11.07
2019-03-22T20:45:28.147Z,10.53
2019-03-22T20:47:59.552Z,9.97
2019-03-22T20:50:35.746Z,11.23
2019-03-22T20:53:02.116Z,12.73
2019-03-22T20:55:32.845Z,11.43
2019-03-22T20:58:03.146Z,11.50
2019-03-22T21:00:33.502Z,13.10
2019-03-22T21:03:04.694Z,12.30
2019-03-22T21:05:35.099Z,12.07
2019-03-22T21:08:05.637Z,11.17
2019-03-22T21:10:35.969Z,11.37
2019-03-22T21:13:06.246Z,14.73
2019-03-22T21:15:36.591Z,13.80
2019-03-22T21:18:06.959Z,12.20
2019-03-22T21:20:37.278Z,12.23
2019-03-22T21:23:07.839Z,11.80
2019-03-22T21:25:38.184Z,12.50
2019-03-22T21:28:08.489Z,10.90
2019-03-22T21:30:38.866Z,11.93
2019-03-22T21:33:09.276Z,10.63
2019-03-22T21:35:39.568Z,15.13
2019-03-22T21:38:11.147Z,12.67
2019-03-22T21:40:42.203Z,12.13
2019-03-22T21:43:12.555Z,15.43
2019-03-22T21:45:42.911Z,13.87
2019-03-22T21:48:13.298Z,14.80
2019-03-22T21:50:43.667Z,13.17
2019-03-22T21:53:13.936Z,13.23
2019-03-22T21:55:44.259Z,13.97
2019-03-22T21:58:15.591Z,15.97
2019-03-22T22:00:45.954Z,14.10
2019-03-22T22:03:16.346Z,14.30
2019-03-22T22:05:48.108Z,18.17
2019-03-22T22:08:18.698Z,23.73
2019-03-22T22:10:59.318Z,15.07
2019-03-22T22:13:21.363Z,29.97
2019-03-22T22:15:51.645Z,21.13
2019-03-22T22:18:21.973Z,31.80
2019-03-22T22:20:52.267Z,28.00
2019-03-22T22:23:22.681Z,36.23
2019-03-22T22:25:52.986Z,41.37
2019-03-22T22:28:23.580Z,51.47
2019-03-22T22:30:54.075Z,42.87
2019-03-22T22:33:24.371Z,43.90
2019-03-22T22:35:59.013Z,31.50
2019-03-22T22:38:26.671Z,47.03
2019-03-22T22:40:57.095Z,51.20
2019-03-22T22:43:27.534Z,37.43
2019-03-22T22:45:57.865Z,38.43
2019-03-22T22:48:28.305Z,36.13
2019-03-22T22:50:58.727Z,40.63
2019-03-22T22:53:29.092Z,38.93
2019-03-22T22:55:59.396Z,37.03
2019-03-22T22:58:29.806Z,35.67
2019-03-22T23:01:00.261Z,33.60
2019-03-22T23:03:31.929Z,36.98
2019-03-22T23:06:09.399Z,36.23
2019-03-22T23:08:35.400Z,39.50
2019-03-22T23:11:05.879Z,39.60
2019-03-22T23:13:37.945Z,39.30
2019-03-22T23:16:08.307Z,44.93
2019-03-22T23:18:38.612Z,38.37
2019-03-22T23:21:08.957Z,39.63
2019-03-22T23:23:40.218Z,45.40
2019-03-22T23:26:10.696Z,41.07
2019-03-22T23:28:41.093Z,44.47
2019-03-22T23:31:11.653Z,36.33
2019-03-22T23:33:42.131Z,42.93
2019-03-22T23:36:20.125Z,41.27
2019-03-22T23:38:44.676Z,58.67
2019-03-22T23:41:15.104Z,48.67
2019-03-22T23:43:45.426Z,43.50
2019-03-22T23:46:15.715Z,55.67
2019-03-22T23:48:45.992Z,57.77
2019-03-22T23:51:16.347Z,49.03
2019-03-22T23:53:46.638Z,68.33
2019-03-22T23:56:17.010Z,68.20
2019-03-22T23:58:47.312Z,58.13
